Time;durP1;ratioP1;P1;durP2;ratioP2;P2;SDS_P1;SDS_P2;PMS_P1;PMS_P2;Temp;Humidity;BMP_temperature;BMP_pressure;BME280_temperature;BME280_humidity;BME280_pressure;Samples;Min_cycle;Max_cycle;Signal;HPM_P1;HPM_P2
2022/10/04 00:00:10;;;;;;;3.28;2.25;;;;;;;11.21;68.57;100135.91;4484735;32;34015;-71
2022/10/04 00:02:44;;;;;;;4.55;2.55;;;;;;;11.48;68.01;100129.84;4483804;32;34845;-72
2022/10/04 00:05:15;;;;;;;2.80;1.93;;;;;;;11.69;67.39;100123.69;4485826;32;34276;-71
2022/10/04 00:07:50;;;;;;;3.85;2.20;;;;;;;11.77;67.34;100122.47;4485310;32;34700;-72
2022/10/04 00:10:28;;;;;;;3.17;1.77;;;;;;;11.05;69.16;100120.38;4484420;32;33782;-71
2022/10/04 00:13:05;;;;;;;3.53;1.92;;;;;;;10.96;69.93;100124.56;4484090;32;34699;-72
2022/10/04 00:15:38;;;;;;;4.03;2.17;;;;;;;10.53;72.27;100137.53;4484557;32;33838;-71
2022/10/04 00:18:27;;;;;;;2.62;1.83;;;;;;;10.69;71.25;100141.41;4484229;32;34718;-73
2022/10/04 00:20:56;;;;;;;2.70;2.15;;;;;;;11.00;70.72;100139.31;4485633;32;34376;-71
2022/10/04 00:23:24;;;;;;;3.53;1.80;;;;;;;11.31;69.35;100126.28;4484012;32;34716;-72
2022/10/04 00:25:54;;;;;;;2.70;2.00;;;;;;;11.59;68.32;100136.28;4485397;32;34201;-72
2022/10/04 00:28:24;;;;;;;5.10;2.08;;;;;;;11.75;67.49;100132.78;4484272;32;34092;-71
2022/10/04 00:31:13;;;;;;;2.90;1.77;;;;;;;11.38;69.16;100127.81;4485398;32;33506;-71
2022/10/04 00:34:02;;;;;;;2.62;1.80;;;;;;;11.37;68.60;100125.31;4484063;32;34013;-71
2022/10/04 00:36:35;;;;;;;3.92;2.05;;;;;;;11.49;68.96;100126.09;4485187;32;34012;-71
2022/10/04 00:39:05;;;;;;;3.47;1.85;;;;;;;11.41;68.86;100124.59;4471159;32;34516;-72
2022/10/04 00:41:48;;;;;;;3.60;1.73;;;;;;;11.52;68.67;100125.59;4485652;32;33424;-72
2022/10/04 00:44:32;;;;;;;2.80;2.03;;;;;;;11.64;68.32;100122.78;4485228;32;33937;-71
2022/10/04 00:47:02;;;;;;;5.20;1.97;;;;;;;11.52;68.64;100125.59;4483852;32;34935;-71
2022/10/04 00:49:38;;;;;;;3.22;2.00;;;;;;;11.21;69.97;100125.06;4484062;32;34015;-71
2022/10/04 00:52:22;;;;;;;4.72;2.08;;;;;;;11.40;69.24;100119.38;4485199;32;34138;-76
2022/10/04 00:54:52;;;;;;;3.45;1.80;;;;;;;11.42;69.43;100112.63;4483866;32;33945;-71
2022/10/04 00:57:23;;;;;;;4.47;2.00;;;;;;;11.49;68.50;100110.59;4483876;32;34819;-71
2022/10/04 00:59:53;;;;;;;2.83;1.95;;;;;;;11.59;68.28;100112.66;4484880;32;34801;-71
2022/10/04 01:02:44;;;;;;;3.53;2.30;;;;;;;11.41;69.09;100115.63;4483655;32;34485;-71
2022/10/04 01:05:28;;;;;;;2.75;2.20;;;;;;;11.48;68.29;100110.84;4484885;32;35441;-76
2022/10/04 01:08:03;;;;;;;4.62;2.20;;;;;;;11.97;67.21;100111.13;4483806;32;35075;-71
2022/10/04 01:10:35;;;;;;;3.45;2.25;;;;;;;11.50;68.90;100114.13;4483708;32;34110;-72
2022/10/04 01:13:19;;;;;;;3.78;2.08;;;;;;;11.43;69.58;100108.03;4485111;32;34292;-71
2022/10/04 01:15:54;;;;;;;3.37;1.83;;;;;;;11.68;68.56;100116.62;4485666;32;33907;-76
2022/10/04 01:18:21;;;;;;;2.50;1.83;;;;;;;11.62;68.59;100114.03;4485686;32;34979;-71
2022/10/04 01:20:51;;;;;;;4.28;2.10;;;;;;;11.63;68.85;100107.56;4486790;32;34680;-71
2022/10/04 01:23:44;;;;;;;2.30;1.87;;;;;;;11.36;69.86;100105.50;4486628;32;33145;-71
2022/10/04 01:26:31;;;;;;;3.62;2.20;;;;;;;11.49;69.56;100099.72;4486504;32;33781;-76
2022/10/04 01:29:09;;;;;;;3.80;2.25;;;;;;;11.76;68.61;100101.78;4486690;32;34303;-71
2022/10/04 01:31:39;;;;;;;3.10;1.87;;;;;;;11.63;69.04;100102.13;4485442;32;33905;-71
2022/10/04 01:34:08;;;;;;;4.87;2.28;;;;;;;11.90;67.94;100103.12;4485328;32;33315;-71
2022/10/04 01:36:35;;;;;;;3.40;2.10;;;;;;;11.41;69.88;100104.75;4485498;32;33842;-71
2022/10/04 01:39:04;;;;;;;4.05;2.20;;;;;;;11.38;69.96;100107.94;4486558;32;34269;-72
2022/10/04 01:41:52;;;;;;;4.10;2.00;;;;;;;11.38;69.93;100106.06;4485381;32;33715;-72
2022/10/04 01:44:47;;;;;;;3.55;2.05;;;;;;;11.76;68.90;100099.06;4485247;32;34285;-70
2022/10/04 01:47:21;;;;;;;3.67;2.28;;;;;;;11.20;70.41;100103.56;4485717;32;33902;-77
2022/10/04 01:49:50;;;;;;;2.65;1.98;;;;;;;11.39;70.38;100107.69;4485155;32;34437;-71
2022/10/04 01:52:23;;;;;;;3.47;2.25;;;;;;;11.39;70.25;100107.69;4486438;32;33881;-77
2022/10/04 01:54:59;;;;;;;3.08;2.20;;;;;;;11.59;70.00;100120.81;4485120;32;34438;-71
2022/10/04 01:57:33;;;;;;;3.92;1.92;;;;;;;11.38;70.33;100111.50;4485463;32;33970;-71
2022/10/04 02:00:03;;;;;;;4.78;2.20;;;;;;;11.57;69.89;100119.41;4486491;32;34159;-71
2022/10/04 02:02:53;;;;;;;3.60;2.35;;;;;;;11.79;68.82;100114.03;4486755;32;33839;-71
2022/10/04 02:05:49;;;;;;;3.75;2.25;;;;;;;11.77;68.91;100119.75;4486333;32;33157;-71
2022/10/04 02:08:23;;;;;;;4.57;2.15;;;;;;;11.91;68.56;100112.09;4483954;32;34582;-76
2022/10/04 02:10:51;;;;;;;2.28;1.70;;;;;;;12.15;67.78;100112.72;4485133;32;34901;-70
2022/10/04 02:13:20;;;;;;;5.45;2.33;;;;;;;12.10;67.35;100112.66;4485225;32;34635;-76
2022/10/04 02:15:48;;;;;;;3.00;2.10;;;;;;;11.82;68.44;100124.44;4485116;32;33300;-71
2022/10/04 02:18:19;;;;;;;4.15;2.17;;;;;;;11.64;69.45;100115.47;4485194;32;33894;-72
2022/10/04 02:20:48;;;;;;;4.47;2.10;;;;;;;12.03;68.04;100112.00;4485450;32;34251;-77
2022/10/04 02:23:17;;;;;;;3.37;2.20;;;;;;;11.91;68.05;100117.53;4486341;32;33772;-71
2022/10/04 02:25:45;;;;;;;6.22;2.30;;;;;;;11.93;67.85;100112.69;4484987;32;34126;-77
2022/10/04 02:28:14;;;;;;;3.30;2.15;;;;;;;11.75;68.72;100119.19;4485102;32;34775;-71
2022/10/04 02:32:56;;;;;;;2.75;1.77;;;;;;;11.70;68.83;100121.78;4484797;32;34045;-76
2022/10/04 02:33:33;;;;;;;4.95;2.12;;;;;;;11.63;69.13;100121.97;4485126;32;34025;-71
2022/10/04 02:36:00;;;;;;;5.28;2.28;;;;;;;11.67;69.34;100123.13;4484671;32;33319;-71
2022/10/04 02:38:34;;;;;;;4.28;2.37;;;;;;;11.52;69.72;100120.16;4486568;32;34021;-71
2022/10/04 02:41:11;;;;;;;3.35;2.20;;;;;;;11.31;70.58;100120.88;4485112;32;34308;-71
2022/10/04 02:43:44;;;;;;;3.67;2.22;;;;;;;11.61;69.79;100124.09;4485011;32;33878;-71
2022/10/04 02:46:35;;;;;;;6.68;2.10;;;;;;;11.75;69.09;100127.34;4485945;32;34491;-76
2022/10/04 02:49:17;;;;;;;2.20;1.73;;;;;;;11.50;70.05;100122.28;4486110;32;33661;-72
2022/10/04 02:51:50;;;;;;;2.60;1.90;;;;;;;11.69;69.69;100122.88;4485933;32;34386;-71
2022/10/04 02:54:26;;;;;;;5.37;2.90;;;;;;;11.72;69.65;100122.37;4485096;32;33790;-71
2022/10/04 02:56:57;;;;;;;3.53;2.08;;;;;;;11.61;70.23;100128.72;4486144;32;34324;-70
2022/10/04 02:59:33;;;;;;;2.95;2.28;;;;;;;11.43;70.94;100118.91;4484716;32;33915;-75
2022/10/04 03:02:23;;;;;;;3.17;1.87;;;;;;;11.52;70.72;100111.19;4484534;32;35013;-71
2022/10/04 03:05:04;;;;;;;2.00;1.80;;;;;;;11.52;70.83;100112.00;4484863;32;34646;-76
2022/10/04 03:07:34;;;;;;;4.00;1.80;;;;;;;11.47;71.14;100118.16;4485798;32;34241;-74
2022/10/04 03:10:02;;;;;;;4.50;2.00;;;;;;;11.54;70.78;100118.00;4484651;32;33979;-71
2022/10/04 03:12:30;;;;;;;3.37;1.85;;;;;;;11.60;70.47;100116.22;4484375;32;33955;-71
2022/10/04 03:14:58;;;;;;;2.55;1.80;;;;;;;11.62;70.42;100123.03;4484611;32;34056;-71
2022/10/04 03:17:25;;;;;;;5.45;2.10;;;;;;;11.40;71.28;100119.38;4484796;32;33204;-71
2022/10/04 03:19:53;;;;;;;2.85;1.85;;;;;;;11.74;70.24;100116.69;4484187;32;34015;-71
2022/10/04 03:22:21;;;;;;;3.22;2.30;;;;;;;11.47;71.07;100115.47;4484431;32;35047;-71
2022/10/04 03:24:52;;;;;;;2.45;1.70;;;;;;;11.48;70.94;100108.94;4485924;32;34679;-76
2022/10/04 03:27:23;;;;;;;4.15;1.80;;;;;;;11.37;71.65;100104.41;4485818;32;33114;-71
2022/10/04 03:29:52;;;;;;;2.55;1.80;;;;;;;11.47;71.37;100117.34;4484626;32;33805;-71
2022/10/04 03:32:29;;;;;;;2.83;1.90;;;;;;;11.41;71.50;100115.63;4484656;32;34988;-71
2022/10/04 03:34:59;;;;;;;3.87;2.40;;;;;;;11.62;70.93;100127.63;4484278;32;34847;-71
2022/10/04 03:37:28;;;;;;;2.92;1.80;;;;;;;11.28;72.20;100125.72;4485169;32;33684;-71
2022/10/04 03:39:56;;;;;;;3.97;2.12;;;;;;;11.35;71.88;100127.47;4484675;32;33996;-71
2022/10/04 03:42:26;;;;;;;2.83;2.00;;;;;;;11.52;71.07;100124.78;4485471;32;34267;-71
2022/10/04 03:45:01;;;;;;;3.90;2.00;;;;;;;11.66;70.78;100126.91;4484834;32;34036;-71
2022/10/04 03:47:32;;;;;;;4.03;2.22;;;;;;;11.38;71.37;100126.97;4484090;32;33535;-72
2022/10/04 03:50:12;;;;;;;3.70;2.10;;;;;;;11.67;70.33;100125.84;4485672;32;35474;-75
2022/10/04 03:52:45;;;;;;;4.55;2.25;;;;;;;11.28;71.81;100125.72;4485706;32;33952;-71
2022/10/04 03:55:14;;;;;;;3.05;2.00;;;;;;;11.40;71.01;100125.66;4484428;32;33972;-78
2022/10/04 03:57:41;;;;;;;2.25;1.90;;;;;;;11.44;70.97;100120.53;4484550;32;33431;-72
2022/10/04 04:00:14;;;;;;;5.07;2.20;;;;;;;11.40;71.15;100122.94;4483280;32;33594;-77
2022/10/04 04:02:46;;;;;;;6.97;3.25;;;;;;;11.40;71.16;100122.09;4481209;32;34227;-74
2022/10/04 04:05:25;;;;;;;8.65;3.70;;;;;;;11.35;71.44;100124.75;4483959;32;34595;-75
2022/10/04 04:07:59;;;;;;;5.45;3.03;;;;;;;11.24;71.42;100123.72;4482957;32;33471;-75
2022/10/04 04:10:29;;;;;;;12.02;5.68;;;;;;;11.50;70.36;100116.84;4485321;32;33672;-77
2022/10/04 04:13:34;;;;;;;12.73;5.00;;;;;;;11.37;71.34;100125.31;4485443;32;34997;-74
2022/10/04 04:16:01;;;;;;;5.43;3.05;;;;;;;11.48;71.13;100121.72;4485394;32;33924;-73
2022/10/04 04:18:32;;;;;;;4.28;2.17;;;;;;;11.34;71.57;100117.66;4485410;32;33384;-75
2022/10/04 04:21:01;;;;;;;3.97;2.47;;;;;;;11.32;72.05;100123.34;4485606;32;34673;-76
2022/10/04 04:23:40;;;;;;;3.95;2.33;;;;;;;11.03;73.26;100125.25;4484151;32;34158;-73
2022/10/04 04:26:42;;;;;;;3.28;2.37;;;;;;;11.45;71.58;100133.91;4484490;32;34145;-73
2022/10/04 04:29:27;;;;;;;4.25;2.20;;;;;;;11.16;73.01;100141.22;4484143;32;33436;-73
2022/10/04 04:32:01;;;;;;;4.37;2.37;;;;;;;11.17;72.78;100147.50;4485107;32;34633;-74
2022/10/04 04:34:34;;;;;;;3.95;2.25;;;;;;;11.33;72.34;100141.28;4484087;32;33999;-74
2022/10/04 04:37:03;;;;;;;4.68;2.28;;;;;;;11.32;71.91;100146.94;4483753;32;34443;-75
2022/10/04 04:39:39;;;;;;;2.87;2.00;;;;;;;11.26;72.00;100154.19;4485214;32;33416;-76
2022/10/04 04:42:09;;;;;;;4.50;1.85;;;;;;;11.46;71.16;100159.16;4485384;32;33854;-75
2022/10/04 04:44:44;;;;;;;5.40;2.50;;;;;;;11.34;71.87;100164.66;4485336;32;35114;-74
2022/10/04 04:47:19;;;;;;;;;;;;;;;11.53;71.27;100153.56;4484861;32;33793;-73
2022/10/04 04:49:46;;;;;;;3.92;2.58;;;;;;;11.32;71.88;100155.94;4483575;32;34136;-74
2022/10/04 04:52:15;;;;;;;3.62;2.28;;;;;;;11.30;71.78;100149.94;4484960;32;33413;-74
2022/10/04 04:54:45;;;;;;;7.22;2.30;;;;;;;11.41;71.54;100150.94;4483883;32;34012;-75
2022/10/04 04:57:15;;;;;;;3.75;2.53;;;;;;;11.37;71.93;100155.22;4483942;32;33737;-74
2022/10/04 04:59:45;;;;;;;3.95;2.45;;;;;;;11.25;72.47;100161.53;4483747;32;34199;-74
2022/10/04 05:02:36;;;;;;;3.50;2.42;;;;;;;11.22;72.53;100163.88;4483721;32;33965;-74
2022/10/04 05:05:23;;;;;;;4.05;2.58;;;;;;;11.15;73.10;100169.47;4483850;32;34061;-74
2022/10/04 05:08:09;;;;;;;4.25;2.30;;;;;;;11.21;73.10;100171.22;4483644;32;33663;-74
2022/10/04 05:10:39;;;;;;;4.97;3.12;;;;;;;11.30;72.94;100171.66;4484924;32;34412;-74
2022/10/04 05:13:08;;;;;;;4.07;2.70;;;;;;;11.35;72.86;100176.34;4484860;32;33742;-75
2022/10/04 05:15:39;;;;;;;4.05;2.60;;;;;;;11.39;72.79;100182.97;4483711;32;34241;-74
2022/10/04 05:18:33;;;;;;;2.87;2.15;;;;;;;11.35;73.44;100182.59;4484537;32;34906;-74
2022/10/04 05:21:12;;;;;;;3.40;2.22;;;;;;;11.52;73.15;100188.09;4481543;32;33960;-74
2022/10/04 05:23:39;;;;;;;4.40;3.00;;;;;;;11.58;73.04;100189.81;4484844;32;33945;-74
2022/10/04 05:26:11;;;;;;;4.18;2.60;;;;;;;11.45;73.75;100190.13;4483217;32;35126;-75
2022/10/04 05:28:39;;;;;;;4.00;2.67;;;;;;;11.43;73.96;100189.56;4483032;32;34679;-76
2022/10/04 05:31:15;;;;;;;3.15;2.22;;;;;;;11.61;73.47;100191.22;4484270;32;33260;-75
2022/10/04 05:34:01;;;;;;;5.70;3.12;;;;;;;11.97;72.35;100192.69;4484312;32;34139;-76
2022/10/04 05:36:47;;;;;;;3.50;2.40;;;;;;;11.92;72.78;100195.31;4483553;32;34095;-75
2022/10/04 05:39:21;;;;;;;4.12;2.58;;;;;;;12.26;71.81;100203.47;4483631;32;34044;-72
2022/10/04 05:42:22;;;;;;;4.72;2.90;;;;;;;11.98;72.71;100201.66;4483283;32;33991;-71
2022/10/04 05:44:52;;;;;;;3.92;2.80;;;;;;;12.02;73.14;100209.06;4465066;32;34630;-74
2022/10/04 05:47:22;;;;;;;5.45;2.58;;;;;;;12.22;72.68;100214.00;4483302;32;35053;-71
2022/10/04 05:49:53;;;;;;;4.25;2.90;;;;;;;12.27;72.38;100216.03;4479014;32;33766;-72
2022/10/04 05:52:29;;;;;;;3.92;2.72;;;;;;;12.23;73.48;100212.97;4467397;32;33084;-74
2022/10/04 05:55:15;;;;;;;5.30;2.78;;;;;;;12.44;72.75;100215.97;4474731;32;33918;-74
2022/10/04 05:58:20;;;;;;;4.32;2.40;;;;;;;12.43;72.66;100204.28;4483630;32;35222;-76
2022/10/04 06:01:09;;;;;;;5.03;2.87;;;;;;;12.65;71.93;100211.66;4485768;32;34701;-75
2022/10/04 06:03:55;;;;;;;4.68;2.67;;;;;;;12.72;71.67;100215.84;4486256;32;33575;-76
2022/10/04 06:06:56;;;;;;;6.53;2.78;;;;;;;12.77;72.20;100211.56;4485150;32;34036;-73
2022/10/04 06:09:43;;;;;;;3.08;2.50;;;;;;;13.52;70.76;100220.94;4484705;32;34060;-72
2022/10/04 06:12:41;;;;;;;3.17;2.53;;;;;;;13.74;69.51;100229.88;4486173;32;34786;-74
2022/10/04 06:15:40;;;;;;;5.35;2.35;;;;;;;14.53;66.42;100228.31;4485394;32;33746;-75
2022/10/04 06:18:29;;;;;;;3.83;2.20;;;;;;;14.15;67.28;100235.69;4484414;32;34787;-77
2022/10/04 06:20:59;;;;;;;5.22;2.20;;;;;;;14.43;66.19;100231.00;4485439;32;34571;-74
2022/10/04 06:23:29;;;;;;;3.30;2.08;;;;;;;14.35;66.41;100237.75;4485640;32;34095;-76
2022/10/04 06:26:04;;;;;;;3.75;2.40;;;;;;;14.54;65.34;100238.16;4485080;32;33846;-77
2022/10/04 06:28:45;;;;;;;4.05;2.60;;;;;;;14.49;65.21;100240.84;4485036;32;34033;-75
2022/10/04 06:31:32;;;;;;;4.53;2.65;;;;;;;14.30;65.39;100243.19;4484949;32;34965;-73
2022/10/04 06:34:02;;;;;;;3.37;2.22;;;;;;;14.29;66.14;100243.44;4485832;32;33771;-74
2022/10/04 06:36:35;;;;;;;3.47;2.30;;;;;;;14.16;66.96;100247.41;4486255;32;33525;-77
2022/10/04 06:39:22;;;;;;;4.68;2.30;;;;;;;14.24;66.99;100243.41;4485874;32;34921;-76
2022/10/04 06:42:15;;;;;;;4.97;2.87;;;;;;;14.33;66.84;100248.09;4485048;32;33935;-73
2022/10/04 06:44:59;;;;;;;4.50;3.00;;;;;;;14.08;67.73;100250.63;4486131;32;34723;-77
2022/10/04 06:47:42;;;;;;;4.62;2.53;;;;;;;14.13;68.08;100256.12;4484653;32;34228;-76
2022/10/04 06:50:27;;;;;;;4.55;2.45;;;;;;;13.98;68.71;100259.56;4486381;32;33832;-76
2022/10/04 06:53:14;;;;;;;3.05;2.40;;;;;;;14.21;67.71;100261.13;4484622;32;35136;-76
2022/10/04 06:55:53;;;;;;;5.00;2.72;;;;;;;14.38;68.28;100257.41;4486058;32;34097;-78
2022/10/04 06:58:36;;;;;;;4.00;2.70;;;;;;;14.73;66.07;100260.44;4486143;32;33484;-74
2022/10/04 07:01:23;;;;;;;15.05;5.22;;;;;;;14.43;67.76;100262.94;4484106;32;34066;-78
2022/10/04 07:03:56;;;;;;;3.75;2.47;;;;;;;14.58;68.16;100260.34;4485883;32;35076;-74
2022/10/04 07:06:28;;;;;;;3.10;2.33;;;;;;;14.60;66.71;100257.31;4484591;32;34314;-74
2022/10/04 07:09:01;;;;;;;3.60;2.35;;;;;;;14.51;67.43;100262.41;4485740;32;33588;-72
2022/10/04 07:11:35;;;;;;;4.30;2.62;;;;;;;14.00;69.26;100272.94;4483844;32;34815;-73
2022/10/04 07:14:12;;;;;;;4.65;2.70;;;;;;;14.30;68.42;100273.19;4484496;32;34194;-75
2022/10/04 07:16:47;;;;;;;5.07;2.95;;;;;;;14.64;67.14;100266.63;4471547;32;33566;-75
2022/10/04 07:19:17;;;;;;;4.57;2.85;;;;;;;14.90;66.33;100279.38;4485362;32;33117;-77
2022/10/04 07:22:04;;;;;;;3.78;2.55;;;;;;;14.46;68.24;100276.84;4485884;32;34668;-78
2022/10/04 07:24:40;;;;;;;5.53;2.72;;;;;;;14.52;67.87;100275.00;4483748;32;34183;-75
2022/10/04 07:27:13;;;;;;;4.25;2.55;;;;;;;14.60;67.07;100276.44;4480419;32;34073;-77
2022/10/04 07:29:44;;;;;;;2.97;2.37;;;;;;;14.70;67.32;100279.25;4484054;32;34211;-75
2022/10/04 07:32:16;;;;;;;3.45;2.17;;;;;;;14.63;67.19;100278.66;4481445;32;33814;-78
2022/10/04 07:35:07;;;;;;;3.55;2.37;;;;;;;15.07;65.55;100279.19;4468372;32;34036;-81
2022/10/04 07:37:46;;;;;;;2.33;2.12;;;;;;;14.62;67.42;100277.00;4461024;32;33971;-76
2022/10/04 07:41:02;;;;;;;2.75;1.95;;;;;;;15.09;65.10;100281.66;4468006;32;33388;-75
2022/10/04 07:43:57;;;;;;;3.55;1.90;;;;;;;15.00;65.19;100280.53;4469289;32;34974;-75
2022/10/04 07:46:46;;;;;;;4.32;2.33;;;;;;;15.07;65.04;100279.19;4478602;32;34957;-76
2022/10/04 07:49:16;;;;;;;2.62;2.00;;;;;;;14.60;66.19;100277.28;4485230;32;33676;-73
2022/10/04 07:52:14;;;;;;;2.92;1.92;;;;;;;14.65;67.47;100279.22;4485587;32;33423;-77
2022/10/04 07:55:15;;;;;;;2.55;1.70;;;;;;;14.71;66.36;100278.16;4485734;32;34029;-80
2022/10/04 07:57:53;;;;;;;4.20;1.90;;;;;;;15.05;65.73;100291.47;4485560;32;35069;-76
2022/10/04 08:00:31;;;;;;;2.72;2.05;;;;;;;14.95;65.81;100287.59;4485344;32;34737;-72
2022/10/04 08:03:18;;;;;;;3.25;1.75;;;;;;;14.65;66.25;100282.78;4484503;32;34461;-73
2022/10/04 08:05:58;;;;;;;3.55;1.60;;;;;;;15.58;65.02;100287.59;4485505;32;34633;-81
2022/10/04 08:08:57;;;;;;;2.58;1.40;;;;;;;15.77;63.42;100287.13;4484330;32;34023;-78
2022/10/04 08:11:42;;;;;;;2.53;1.48;;;;;;;15.91;62.55;100298.37;4468347;32;35416;-77
2022/10/04 08:14:19;;;;;;;3.75;1.83;;;;;;;16.31;61.23;100292.13;4485308;32;34235;-79
2022/10/04 08:17:04;;;;;;;2.83;1.50;;;;;;;16.72;60.26;100294.03;4485241;32;33936;-78
2022/10/04 08:19:37;;;;;;;;;;;;;;;16.65;59.84;100302.53;4484272;32;34044;-78
2022/10/04 08:22:18;;;;;;;2.67;1.45;;;;;;;16.07;60.55;100296.47;4483686;32;34172;-76
2022/10/04 08:25:02;;;;;;;5.07;1.37;;;;;;;15.88;61.39;100307.12;4482862;32;34090;-77
2022/10/04 08:27:34;;;;;;;2.08;1.52;;;;;;;16.67;59.58;100311.28;4484053;32;34559;-76
2022/10/04 08:30:09;;;;;;;3.45;1.30;;;;;;;16.77;60.83;100322.22;4475770;32;34015;-76
2022/10/04 08:32:46;;;;;;;1.33;1.23;;;;;;;17.10;59.26;100319.19;4468114;32;34694;-76
2022/10/04 08:35:34;;;;;;;3.12;1.70;;;;;;;16.88;60.39;100325.81;4469444;32;34208;-77
2022/10/04 08:38:41;;;;;;;3.70;1.58;;;;;;;16.22;61.70;100318.41;4468480;32;33486;-77
2022/10/04 08:41:46;;;;;;;1.92;1.50;;;;;;;16.42;59.95;100322.25;4469020;32;33881;-77
2022/10/04 08:44:41;;;;;;;1.35;1.20;;;;;;;16.22;60.53;100323.91;4467565;32;33600;-78
2022/10/04 08:47:37;;;;;;;1.77;1.40;;;;;;;16.87;57.83;100324.19;4469496;32;33532;-77
2022/10/04 08:50:31;;;;;;;2.75;1.45;;;;;;;16.35;59.55;100317.88;4468210;32;33992;-78
2022/10/04 08:53:42;;;;;;;3.33;1.50;;;;;;;16.96;58.05;100313.47;4466250;32;34290;-77
2022/10/04 08:56:34;;;;;;;2.22;1.40;;;;;;;16.93;58.94;100323.06;4468136;32;33355;-76
2022/10/04 08:59:15;;;;;;;1.58;1.20;;;;;;;17.78;56.33;100324.94;4468467;32;33493;-76
2022/10/04 09:02:20;;;;;;;1.85;1.23;;;;;;;17.89;56.76;100316.69;4469432;32;33658;-76
2022/10/04 09:04:57;;;;;;;1.73;1.30;;;;;;;18.22;53.86;100324.16;4469672;32;35088;-79
2022/10/04 09:07:56;;;;;;;3.05;1.45;;;;;;;17.18;54.94;100330.41;4469317;32;34105;-77
2022/10/04 09:10:36;;;;;;;1.95;1.35;;;;;;;17.24;57.01;100333.97;4469102;32;33523;-78
2022/10/04 09:13:29;;;;;;;2.35;1.30;;;;;;;17.85;54.54;100326.59;4469225;32;33965;-77
2022/10/04 09:16:17;;;;;;;2.15;1.50;;;;;;;16.96;55.45;100330.72;4467236;32;35186;-78
2022/10/04 09:19:10;;;;;;;1.37;1.27;;;;;;;16.73;56.88;100332.09;4482992;32;34464;-79
2022/10/04 09:21:45;;;;;;;2.50;1.40;;;;;;;15.87;58.26;100335.56;4483678;32;33456;-75
2022/10/04 09:24:33;;;;;;;2.95;1.33;;;;;;;15.48;58.59;100327.75;4484371;32;33828;-77
2022/10/04 09:27:13;;;;;;;1.95;1.40;;;;;;;16.05;58.62;100315.94;4484427;32;33866;-79
2022/10/04 09:30:14;;;;;;;1.58;1.30;;;;;;;17.03;57.07;100311.25;4484394;32;33945;-79
2022/10/04 09:32:58;;;;;;;3.42;1.48;;;;;;;17.29;55.01;100319.41;4482756;32;34315;-78
2022/10/04 09:35:39;;;;;;;1.95;1.17;;;;;;;17.44;53.23;100327.56;4485815;32;34673;-77
2022/10/04 09:38:41;;;;;;;1.85;1.37;;;;;;;17.19;54.08;100323.00;4485772;32;34297;-76
2022/10/04 09:42:03;;;;;;;2.47;1.17;;;;;;;17.52;53.68;100324.25;4485807;32;33892;-78
2022/10/04 09:44:53;;;;;;;4.95;1.20;;;;;;;17.43;53.44;100323.19;4451900;32;33486;-75
2022/10/04 09:47:37;;;;;;;2.25;1.50;;;;;;;17.54;53.49;100318.50;4483947;31;33373;-75
2022/10/04 09:50:25;;;;;;;;;;;;;;;17.39;54.82;100324.87;4486298;32;33862;-75
2022/10/04 09:53:27;;;;;;;1.55;1.30;;;;;;;16.79;56.91;100335.66;4486412;32;34109;-75
2022/10/04 09:56:12;;;;;;;3.10;1.58;;;;;;;16.77;56.52;100343.34;4485255;32;33598;-75
2022/10/04 09:58:50;;;;;;;2.20;1.33;;;;;;;16.92;56.07;100342.53;4486310;32;34795;-75
2022/10/04 10:01:32;;;;;;;2.05;1.60;;;;;;;17.34;55.55;100339.41;4485131;32;34201;-75
2022/10/04 10:04:12;;;;;;;2.20;1.30;;;;;;;17.36;54.88;100344.59;4485297;32;33913;-75
2022/10/04 10:07:05;;;;;;;3.47;1.42;;;;;;;17.63;55.71;100352.47;4486358;32;33120;-75
2022/10/04 10:16:01;;;;;;;3.12;1.50;;;;;;;16.20;56.98;100345.25;4455519;32;33254;-76
2022/10/04 10:18:47;;;;;;;1.52;1.40;;;;;;;16.62;57.63;100350.44;4478950;32;33975;-75
2022/10/04 10:21:41;;;;;;;1.73;1.23;;;;;;;15.63;58.69;100351.63;4485856;32;34792;-75
2022/10/04 10:24:46;;;;;;;3.55;1.30;;;;;;;15.96;58.72;100355.84;4484982;32;34074;-77
2022/10/04 10:27:28;;;;;;;1.83;1.23;;;;;;;15.96;55.88;100350.38;4486409;32;34075;-74
2022/10/04 10:29:56;;;;;;;2.55;1.10;;;;;;;16.35;53.80;100358.13;4485701;32;33130;-81
2022/10/04 10:32:45;;;;;;;1.92;1.48;;;;;;;16.38;55.22;100366.59;4486033;32;34416;-76
2022/10/04 10:35:24;;;;;;;2.08;1.50;;;;;;;16.43;54.31;100360.31;4485601;32;34243;-80
2022/10/04 10:38:13;;;;;;;1.77;1.33;;;;;;;15.96;55.81;100366.78;4484029;32;33582;-80
2022/10/04 10:41:05;;;;;;;2.35;1.12;;;;;;;15.90;57.22;100368.72;4484175;32;33463;-81
2022/10/04 10:43:56;;;;;;;1.45;1.15;;;;;;;16.16;56.31;100371.53;4485138;32;34031;-76
2022/10/04 10:46:51;;;;;;;1.20;1.00;;;;;;;16.52;54.40;100366.06;4478320;32;34082;-78
2022/10/04 10:49:35;;;;;;;1.95;1.00;;;;;;;15.81;54.19;100361.28;4483319;32;34209;-77
2022/10/04 10:52:27;;;;;;;2.65;1.40;;;;;;;16.26;53.88;100363.28;4480078;32;34437;-73
2022/10/04 10:55:28;;;;;;;3.28;1.42;;;;;;;15.77;55.00;100353.62;4470160;32;33669;-76
2022/10/04 10:58:26;;;;;;;1.10;1.00;;;;;;;16.16;56.08;100363.31;4443986;32;34100;-76
2022/10/04 11:01:25;;;;;;;1.98;1.35;;;;;;;15.77;54.91;100358.28;4470139;32;34577;-75
2022/10/04 11:04:17;;;;;;;2.15;1.30;;;;;;;16.32;54.99;100362.22;4470026;32;33511;-79
2022/10/04 11:07:15;;;;;;;2.28;1.40;;;;;;;15.77;55.61;100361.00;4470386;32;34024;-79
2022/10/04 11:09:50;;;;;;;1.33;1.23;;;;;;;17.20;54.45;100354.81;4453157;32;34204;-80
2022/10/04 11:12:28;;;;;;;2.12;1.30;;;;;;;17.16;53.84;100353.72;4469153;32;33732;-79
2022/10/04 11:15:33;;;;;;;2.97;1.40;;;;;;;17.62;54.39;100359.03;4470054;32;33183;-79
2022/10/04 11:18:20;;;;;;;3.30;1.55;;;;;;;17.50;53.71;100359.37;4470079;32;34094;-78
2022/10/04 11:21:24;;;;;;;1.83;1.50;;;;;;;18.36;52.19;100354.56;4468991;32;35071;-77
2022/10/04 11:24:49;;;;;;;1.83;1.40;;;;;;;18.41;52.85;100357.25;4468919;32;34131;-76
2022/10/04 11:27:27;;;;;;;2.28;1.50;;;;;;;19.29;51.55;100349.06;4421719;32;33567;-76
2022/10/04 11:30:07;;;;;;;2.65;1.55;;;;;;;18.93;49.96;100360.41;4421401;32;33888;-76
2022/10/04 11:32:47;;;;;;;3.65;1.95;;;;;;;18.32;52.77;100356.22;4459005;32;34079;-76
2022/10/04 11:35:14;;;;;;;2.08;1.67;;;;;;;18.40;52.71;100361.12;4470169;32;33836;-76
2022/10/04 11:37:45;;;;;;;2.28;1.62;;;;;;;18.86;52.49;100348.94;4470293;32;33202;-76
2022/10/04 11:40:16;;;;;;;3.28;1.90;;;;;;;18.67;51.95;100348.81;4469929;32;34849;-76
2022/10/04 11:42:55;;;;;;;3.03;1.40;;;;;;;19.32;52.11;100356.72;4470198;32;34286;-77
2022/10/04 11:46:12;;;;;;;1.62;1.40;;;;;;;19.65;50.42;100354.97;4470128;32;34939;-77
2022/10/04 11:48:52;;;;;;;2.30;1.42;;;;;;;19.24;50.28;100354.59;4469835;32;33796;-76
2022/10/04 11:51:34;;;;;;;2.35;1.83;;;;;;;18.90;49.94;100355.50;4469990;32;34071;-76
2022/10/04 11:54:36;;;;;;;2.97;1.60;;;;;;;19.22;49.36;100362.31;4470006;32;34277;-76
2022/10/04 11:57:24;;;;;;;2.50;1.45;;;;;;;18.92;49.81;100358.78;4469246;32;34668;-76
2022/10/04 12:00:03;;;;;;;1.37;1.25;;;;;;;17.99;52.25;100366.03;4468762;32;34223;-76
2022/10/04 12:03:01;;;;;;;2.75;1.90;;;;;;;18.04;51.75;100358.59;4468901;32;33846;-76
2022/10/04 12:05:39;;;;;;;3.03;1.90;;;;;;;17.55;53.82;100366.75;4482561;32;34999;-76
2022/10/04 12:08:15;;;;;;;2.67;1.70;;;;;;;17.65;52.75;100374.97;4485785;32;33978;-76
2022/10/04 12:11:07;;;;;;;3.22;1.50;;;;;;;17.91;52.53;100372.13;4485415;32;33145;-77
2022/10/04 12:13:53;;;;;;;1.20;1.10;;;;;;;17.96;50.41;100364.69;4485530;32;33741;-76
2022/10/04 12:16:32;;;;;;;4.60;1.58;;;;;;;18.38;50.65;100363.34;4484404;32;35099;-76
2022/10/04 12:19:30;;;;;;;1.50;1.30;;;;;;;18.17;51.41;100367.31;4485404;32;33808;-76
2022/10/04 12:22:13;;;;;;;2.35;1.60;;;;;;;18.22;51.84;100372.78;4484329;32;33177;-75
2022/10/04 12:25:08;;;;;;;3.47;1.73;;;;;;;17.80;51.72;100385.87;4484748;32;33899;-77
2022/10/04 12:28:34;;;;;;;2.22;1.67;;;;;;;17.33;53.02;100378.09;4485339;32;35333;-78
2022/10/04 12:31:27;;;;;;;2.85;1.70;;;;;;;17.66;53.89;100386.75;4436999;32;96119;-77
2022/10/04 12:34:16;;;;;;;2.70;1.75;;;;;;;17.42;54.69;100377.22;4454879;32;34319;-78
2022/10/04 12:37:12;;;;;;;2.20;1.70;;;;;;;17.35;55.61;100381.38;4469534;32;34003;-82